Time;durP1;ratioP1;P1;durP2;ratioP2;P2;SDS_P1;SDS_P2;PMS_P1;PMS_P2;Temp;Humidity;BMP_temperature;BMP_pressure;BME280_temperature;BME280_humidity;BME280_pressure;Samples;Min_cycle;Max_cycle;Signal;HPM_P1;HPM_P2
2022/08/24 00:00:50;;;;;;;;;;;22.90;69.40;;;;;;6093823;23;878;-67
2022/08/24 00:03:15;;;;;;;;;;;22.90;69.40;;;;;;6096042;23;912;-67
2022/08/24 00:05:41;;;;;;;;;;;22.90;69.40;;;;;;6095476;23;1145;-67
2022/08/24 00:08:06;;;;;;;;;;;22.90;69.40;;;;;;6096233;23;1921;-67
2022/08/24 00:10:32;;;;;;;;;;;22.90;69.40;;;;;;6095802;23;923;-67
2022/08/24 00:12:57;;;;;;;;;;;22.90;69.40;;;;;;6094801;23;844;-67
2022/08/24 00:15:23;;;;;;;;;;;22.90;69.40;;;;;;6094973;23;1247;-66
2022/08/24 00:17:49;;;;;;;;;;;22.90;69.40;;;;;;6094323;23;785;-67
2022/08/24 00:20:14;;;;;;;;;;;22.90;69.40;;;;;;6094585;23;865;-66
2022/08/24 00:22:40;;;;;;;;;;;22.90;69.40;;;;;;6094458;23;912;-67
2022/08/24 00:25:06;;;;;;;;;;;22.90;69.50;;;;;;6097022;23;1228;-66
2022/08/24 00:27:31;;;;;;;;;;;22.90;69.50;;;;;;6071411;23;1870;-67
2022/08/24 00:29:57;;;;;;;;;;;22.90;69.50;;;;;;6096064;23;786;-66
2022/08/24 00:32:22;;;;;;;;;;;22.90;69.50;;;;;;6097766;23;849;-67
2022/08/24 00:34:48;;;;;;;;;;;22.90;69.50;;;;;;6096018;23;1176;-67
2022/08/24 00:37:13;;;;;;;;;;;22.90;69.50;;;;;;6097107;23;832;-67
2022/08/24 00:39:39;;;;;;;;;;;22.90;69.50;;;;;;6096396;23;836;-67
2022/08/24 00:42:04;;;;;;;;;;;22.90;69.50;;;;;;6097694;23;960;-67
2022/08/24 00:44:30;;;;;;;;;;;22.90;69.50;;;;;;6097290;23;1208;-66
2022/08/24 00:47:03;;;;;;;;;;;22.90;69.60;;;;;;6095734;23;1881;-66
2022/08/24 00:49:39;;;;;;;;;;;22.90;69.60;;;;;;6096186;23;807;-66
2022/08/24 00:52:16;;;;;;;;;;;22.90;69.60;;;;;;6096208;23;1070;-65
2022/08/24 00:54:46;;;;;;;;;;;22.90;69.60;;;;;;6095922;23;1279;-66
2022/08/24 00:57:12;;;;;;;;;;;22.80;69.50;;;;;;6095168;23;979;-66
2022/08/24 00:59:42;;;;;;;;;;;22.90;69.60;;;;;;6095958;23;1368;-66
2022/08/24 01:02:10;;;;;;;;;;;22.90;69.60;;;;;;6095786;23;790;-66
2022/08/24 01:04:38;;;;;;;;;;;22.90;69.60;;;;;;6095590;23;1189;-67
2022/08/24 01:07:03;;;;;;;;;;;22.90;69.60;;;;;;6095206;23;1854;-67
2022/08/24 01:09:29;;;;;;;;;;;22.90;69.60;;;;;;6097415;23;820;-66
2022/08/24 01:11:55;;;;;;;;;;;22.90;69.60;;;;;;6097194;23;812;-67
2022/08/24 01:14:21;;;;;;;;;;;22.90;69.70;;;;;;6096179;23;1228;-67
2022/08/24 01:19:35;;;;;;;;;;;22.90;69.60;;;;;;6096103;23;608;-67
2022/08/24 01:22:05;;;;;;;;;;;22.90;69.70;;;;;;6095659;23;876;-66
2022/08/24 01:24:30;;;;;;;;;;;22.90;69.70;;;;;;6097208;23;1235;-66
2022/08/24 01:26:56;;;;;;;;;;;22.90;69.70;;;;;;6070728;23;1943;-67
2022/08/24 01:29:22;;;;;;;;;;;22.90;69.70;;;;;;6071235;23;1245;-67
2022/08/24 01:31:47;;;;;;;;;;;22.90;69.70;;;;;;6095801;23;999;-67
2022/08/24 01:34:13;;;;;;;;;;;22.90;69.70;;;;;;6095373;23;1216;-66
2022/08/24 01:36:46;;;;;;;;;;;22.90;69.70;;;;;;6094735;23;884;-66
2022/08/24 01:39:11;;;;;;;;;;;22.80;69.60;;;;;;6094741;23;792;-67
2022/08/24 01:41:37;;;;;;;;;;;22.80;69.70;;;;;;6097307;23;868;-67
2022/08/24 01:44:05;;;;;;;;;;;22.90;69.70;;;;;;6096982;23;987;-67
2022/08/24 01:46:30;;;;;;;;;;;22.90;69.70;;;;;;6096537;23;1936;-68
2022/08/24 01:48:59;;;;;;;;;;;22.90;69.70;;;;;;6096603;23;813;-68
2022/08/24 01:51:25;;;;;;;;;;;22.80;69.70;;;;;;6095123;23;912;-68
2022/08/24 01:53:51;;;;;;;;;;;22.90;69.70;;;;;;6095105;23;1544;-68
2022/08/24 01:56:17;;;;;;;;;;;22.90;69.80;;;;;;6096396;23;1327;-68
2022/08/24 01:58:43;;;;;;;;;;;22.90;69.80;;;;;;6096250;23;836;-68
2022/08/24 02:01:08;;;;;;;;;;;22.80;69.80;;;;;;6096814;23;792;-68
2022/08/24 02:03:34;;;;;;;;;;;22.80;69.70;;;;;;6095549;23;884;-69
2022/08/24 02:05:59;;;;;;;;;;;22.90;69.80;;;;;;6070427;23;1383;-66
2022/08/24 02:08:25;;;;;;;;;;;22.80;69.80;;;;;;6096474;23;1936;-66
2022/08/24 02:10:50;;;;;;;;;;;22.90;69.80;;;;;;6096910;23;1007;-66
2022/08/24 02:13:16;;;;;;;;;;;22.90;69.80;;;;;;6096636;23;995;-66
2022/08/24 02:15:41;;;;;;;;;;;22.80;69.80;;;;;;6094209;23;1164;-66
2022/08/24 02:18:08;;;;;;;;;;;22.90;70.60;;;;;;6096879;23;809;-67
2022/08/24 02:20:35;;;;;;;;;;;22.90;69.90;;;;;;6096834;23;784;-68
2022/08/24 02:23:00;;;;;;;;;;;22.90;69.80;;;;;;6095149;23;785;-67
2022/08/24 02:25:29;;;;;;;;;;;22.90;69.90;;;;;;6096071;23;1177;-67
2022/08/24 02:27:56;;;;;;;;;;;22.80;69.80;;;;;;6071165;23;1885;-67
2022/08/24 02:30:22;;;;;;;;;;;22.90;69.90;;;;;;6095021;23;816;-67
2022/08/24 02:32:47;;;;;;;;;;;22.90;69.80;;;;;;6095011;23;1002;-66
2022/08/24 02:35:13;;;;;;;;;;;22.90;69.80;;;;;;6096464;23;1176;-67
2022/08/24 02:37:38;;;;;;;;;;;22.90;69.90;;;;;;6096623;23;706;-67
2022/08/24 02:40:04;;;;;;;;;;;22.80;69.80;;;;;;6096600;23;781;-67
2022/08/24 02:42:29;;;;;;;;;;;22.90;69.90;;;;;;6095324;23;885;-67
2022/08/24 02:44:55;;;;;;;;;;;22.90;69.90;;;;;;6096199;23;1280;-67
2022/08/24 02:47:20;;;;;;;;;;;22.80;69.80;;;;;;6095504;23;1929;-67
2022/08/24 02:49:47;;;;;;;;;;;22.90;69.90;;;;;;6096601;23;802;-67
2022/08/24 02:52:13;;;;;;;;;;;22.80;69.80;;;;;;6096658;23;816;-67
2022/08/24 02:54:38;;;;;;;;;;;22.90;69.90;;;;;;6096314;23;1235;-67
2022/08/24 02:57:04;;;;;;;;;;;22.80;69.90;;;;;;6096261;23;798;-67
2022/08/24 02:59:29;;;;;;;;;;;22.80;69.90;;;;;;6070962;23;1208;-67
2022/08/24 03:01:55;;;;;;;;;;;22.90;69.90;;;;;;6096118;23;881;-67
2022/08/24 03:04:20;;;;;;;;;;;22.80;69.90;;;;;;6095887;23;1419;-67
2022/08/24 03:06:46;;;;;;;;;;;22.90;70.00;;;;;;6095798;23;1885;-67
2022/08/24 03:09:12;;;;;;;;;;;22.90;70.00;;;;;;6094884;23;844;-67
2022/08/24 03:11:38;;;;;;;;;;;22.90;70.00;;;;;;6094586;23;781;-67
2022/08/24 03:14:03;;;;;;;;;;;22.90;70.00;;;;;;6070904;23;885;-67
2022/08/24 03:16:29;;;;;;;;;;;22.80;70.00;;;;;;6095672;23;920;-67
2022/08/24 03:18:54;;;;;;;;;;;22.90;70.00;;;;;;6095140;23;860;-67
2022/08/24 03:21:19;;;;;;;;;;;22.90;70.00;;;;;;6096035;23;889;-67
2022/08/24 03:23:45;;;;;;;;;;;22.90;70.00;;;;;;6094823;23;1038;-67
2022/08/24 03:26:10;;;;;;;;;;;22.80;70.00;;;;;;6095368;23;1161;-67
2022/08/24 03:28:36;;;;;;;;;;;22.80;70.00;;;;;;6096304;23;1889;-67
2022/08/24 03:31:01;;;;;;;;;;;22.90;70.10;;;;;;6095981;23;1051;-67
2022/08/24 03:33:27;;;;;;;;;;;22.80;70.00;;;;;;6095887;23;844;-67
2022/08/24 03:35:53;;;;;;;;;;;22.90;70.10;;;;;;6095629;23;1204;-67
2022/08/24 03:38:20;;;;;;;;;;;22.90;70.00;;;;;;6096237;23;857;-67
2022/08/24 03:40:45;;;;;;;;;;;22.80;70.00;;;;;;6094467;23;801;-67
2022/08/24 03:43:44;;;;;;;;;;;22.90;70.00;;;;;;6095929;23;908;-67
2022/08/24 03:45:56;;;;;;;;;;;22.80;70.00;;;;;;6095174;23;1205;-67
2022/08/24 03:48:23;;;;;;;;;;;22.90;70.10;;;;;;6094355;23;1925;-67
2022/08/24 03:50:48;;;;;;;;;;;22.80;70.00;;;;;;6096223;23;860;-67
2022/08/24 03:53:14;;;;;;;;;;;22.90;70.10;;;;;;6095928;23;924;-67
2022/08/24 03:55:40;;;;;;;;;;;22.90;70.10;;;;;;6095340;23;1204;-67
2022/08/24 03:58:05;;;;;;;;;;;22.80;70.00;;;;;;6096206;23;813;-67
2022/08/24 04:00:31;;;;;;;;;;;22.90;70.10;;;;;;6097184;23;816;-67
2022/08/24 04:02:56;;;;;;;;;;;22.80;70.00;;;;;;6097823;23;1006;-67
2022/08/24 04:05:21;;;;;;;;;;;22.80;70.00;;;;;;6097612;23;1196;-67
2022/08/24 04:07:47;;;;;;;;;;;22.80;70.10;;;;;;6097333;23;1878;-67
2022/08/24 04:10:13;;;;;;;;;;;22.90;70.10;;;;;;6097939;23;781;-67
2022/08/24 04:12:38;;;;;;;;;;;22.90;70.10;;;;;;6097859;23;841;-67
2022/08/24 04:15:04;;;;;;;;;;;22.90;70.10;;;;;;6099811;23;3703;-69
2022/08/24 04:17:30;;;;;;;;;;;22.80;70.10;;;;;;6101174;23;736;-69
2022/08/24 04:19:58;;;;;;;;;;;22.90;70.20;;;;;;6101791;23;815;-69
2022/08/24 04:22:24;;;;;;;;;;;22.80;70.10;;;;;;6127561;23;942;-69
2022/08/24 04:24:50;;;;;;;;;;;22.90;70.20;;;;;;6127261;23;1302;-69
2022/08/24 04:27:15;;;;;;;;;;;22.80;70.10;;;;;;6101371;23;1947;-69
2022/08/24 04:29:41;;;;;;;;;;;22.80;70.10;;;;;;6127657;23;759;-69
2022/08/24 04:32:06;;;;;;;;;;;22.90;70.20;;;;;;6127511;23;868;-69
2022/08/24 04:34:32;;;;;;;;;;;22.90;70.20;;;;;;6101484;23;911;-69
2022/08/24 04:36:57;;;;;;;;;;;22.90;70.20;;;;;;6101090;23;1268;-68
2022/08/24 04:39:23;;;;;;;;;;;22.90;70.20;;;;;;6095535;23;820;-67
2022/08/24 04:41:48;;;;;;;;;;;22.90;70.20;;;;;;6126999;23;801;-69
2022/08/24 04:44:13;;;;;;;;;;;22.90;70.20;;;;;;6127425;23;766;-69
2022/08/24 04:46:39;;;;;;;;;;;22.80;70.10;;;;;;6126972;23;1918;-69
2022/08/24 04:49:04;;;;;;;;;;;22.90;70.20;;;;;;6101735;23;859;-69
2022/08/24 04:51:30;;;;;;;;;;;22.90;70.20;;;;;;6127214;23;852;-68
2022/08/24 04:53:55;;;;;;;;;;;22.90;70.20;;;;;;6076927;23;927;-68
2022/08/24 04:56:22;;;;;;;;;;;22.80;70.10;;;;;;6100810;23;1209;-71
2022/08/24 04:58:49;;;;;;;;;;;22.90;70.20;;;;;;6101546;23;785;-69
2022/08/24 05:01:16;;;;;;;;;;;22.90;70.10;;;;;;6127117;23;825;-69
2022/08/24 05:03:47;;;;;;;;;;;22.90;69.90;;;;;;6101603;23;809;-68
2022/08/24 05:06:14;;;;;;;;;;;22.90;69.80;;;;;;6126585;23;1177;-68
2022/08/24 05:08:39;;;;;;;;;;;22.80;69.70;;;;;;6101409;23;1889;-67
2022/08/24 05:11:08;;;;;;;;;;;22.80;69.90;;;;;;6126611;23;919;-68
2022/08/24 05:13:36;;;;;;;;;;;22.80;69.90;;;;;;6101758;23;958;-69
2022/08/24 05:16:05;;;;;;;;;;;22.80;70.60;;;;;;6100609;23;1283;-70
2022/08/24 05:18:32;;;;;;;;;;;22.80;70.00;;;;;;6101184;23;829;-69
2022/08/24 05:20:57;;;;;;;;;;;22.80;69.90;;;;;;6127042;23;835;-68
2022/08/24 05:23:23;;;;;;;;;;;22.80;70.10;;;;;;6127056;23;891;-67
2022/08/24 05:25:48;;;;;;;;;;;22.80;70.10;;;;;;6126361;23;1192;-69
2022/08/24 05:28:14;;;;;;;;;;;22.80;70.20;;;;;;6126857;23;1933;-68
2022/08/24 05:30:39;;;;;;;;;;;22.80;70.20;;;;;;6100957;23;1264;-68
2022/08/24 05:33:05;;;;;;;;;;;22.80;70.20;;;;;;6101040;23;832;-67
2022/08/24 05:35:30;;;;;;;;;;;22.80;70.20;;;;;;6126548;23;1141;-67
2022/08/24 05:37:56;;;;;;;;;;;22.80;70.20;;;;;;6100754;23;1345;-69
2022/08/24 05:40:22;;;;;;;;;;;22.80;70.30;;;;;;6100758;23;766;-69
2022/08/24 05:42:47;;;;;;;;;;;22.80;70.40;;;;;;6126083;23;809;-68
2022/08/24 05:45:13;;;;;;;;;;;22.70;70.20;;;;;;6126475;23;1144;-68
2022/08/24 05:47:38;;;;;;;;;;;22.80;70.30;;;;;;6100547;23;1889;-68
2022/08/24 05:50:04;;;;;;;;;;;22.80;70.40;;;;;;6125917;23;781;-68
2022/08/24 05:52:30;;;;;;;;;;;22.80;70.40;;;;;;6126435;23;884;-68
2022/08/24 05:54:56;;;;;;;;;;;22.80;70.40;;;;;;6126272;23;1542;-68
2022/08/24 05:57:22;;;;;;;;;;;22.80;70.70;;;;;;6100328;23;824;-67
2022/08/24 05:59:47;;;;;;;;;;;22.80;70.90;;;;;;6100810;23;868;-68
2022/08/24 06:02:13;;;;;;;;;;;22.80;70.80;;;;;;6100746;23;949;-67
2022/08/24 06:04:38;;;;;;;;;;;22.80;71.10;;;;;;6100767;23;794;-68
2022/08/24 06:07:04;;;;;;;;;;;22.80;71.30;;;;;;6125875;23;1924;-68
2022/08/24 06:09:30;;;;;;;;;;;22.80;71.40;;;;;;6100619;23;942;-67
2022/08/24 06:11:55;;;;;;;;;;;22.80;71.50;;;;;;6076571;23;1252;-69
2022/08/24 06:14:21;;;;;;;;;;;22.80;71.80;;;;;;6126626;23;864;-68
2022/08/24 06:16:47;;;;;;;;;;;22.80;71.90;;;;;;6125959;23;1169;-68
2022/08/24 06:19:13;;;;;;;;;;;22.80;71.90;;;;;;6126495;23;812;-68
2022/08/24 06:21:39;;;;;;;;;;;22.80;72.10;;;;;;6100336;23;883;-69
2022/08/24 06:24:05;;;;;;;;;;;22.80;72.20;;;;;;6126491;23;780;-68
2022/08/24 06:29:15;;;;;;;;;;;22.70;72.00;;;;;;6126552;23;662;-67
2022/08/24 06:31:41;;;;;;;;;;;22.70;72.00;;;;;;6100341;23;841;-67
2022/08/24 06:34:07;;;;;;;;;;;22.70;71.90;;;;;;6100576;23;963;-67
2022/08/24 06:36:32;;;;;;;;;;;22.70;72.00;;;;;;6125661;23;1256;-67
2022/08/24 06:38:58;;;;;;;;;;;22.70;72.00;;;;;;6126143;23;999;-67
2022/08/24 06:41:25;;;;;;;;;;;22.70;71.80;;;;;;6100586;23;750;-68
2022/08/24 06:43:51;;;;;;;;;;;22.70;71.90;;;;;;6101123;23;761;-67
2022/08/24 06:46:16;;;;;;;;;;;22.70;71.80;;;;;;6100021;23;1180;-67
2022/08/24 06:48:42;;;;;;;;;;;22.70;71.80;;;;;;6100156;23;1940;-67
2022/08/24 06:51:08;;;;;;;;;;;22.70;71.90;;;;;;6100187;23;1042;-67
2022/08/24 06:53:34;;;;;;;;;;;22.70;71.80;;;;;;6100170;23;785;-68
2022/08/24 06:56:00;;;;;;;;;;;22.70;71.90;;;;;;6125726;23;1177;-68
2022/08/24 06:58:27;;;;;;;;;;;22.70;71.90;;;;;;6126162;23;793;-67
2022/08/24 07:00:54;;;;;;;;;;;22.70;71.90;;;;;;6126232;23;845;-67
2022/08/24 07:03:19;;;;;;;;;;;22.70;72.00;;;;;;6126126;23;809;-68
2022/08/24 07:05:48;;;;;;;;;;;22.70;72.00;;;;;;6099691;23;1244;-66
2022/08/24 07:08:14;;;;;;;;;;;22.70;71.90;;;;;;6100070;23;1893;-67
2022/08/24 07:10:39;;;;;;;;;;;22.70;71.90;;;;;;6100200;23;773;-68
2022/08/24 07:13:05;;;;;;;;;;;22.70;72.00;;;;;;6126003;23;781;-69
2022/08/24 07:15:31;;;;;;;;;;;22.80;72.00;;;;;;6125451;23;1161;-69
2022/08/24 07:17:56;;;;;;;;;;;22.80;72.00;;;;;;6126127;23;812;-67
2022/08/24 07:20:23;;;;;;;;;;;22.70;72.00;;;;;;6099929;23;856;-68
2022/08/24 07:22:49;;;;;;;;;;;22.80;72.00;;;;;;6125784;23;848;-69
2022/08/24 07:25:14;;;;;;;;;;;22.70;72.10;;;;;;6125722;23;1173;-67
2022/08/24 07:27:40;;;;;;;;;;;22.80;72.10;;;;;;6099493;23;1925;-68
2022/08/24 07:30:05;;;;;;;;;;;22.70;72.10;;;;;;6126099;23;1054;-67
2022/08/24 07:32:32;;;;;;;;;;;22.80;72.10;;;;;;6125741;23;955;-66
2022/08/24 07:34:58;;;;;;;;;;;22.80;72.20;;;;;;6126821;23;1278;-67
2022/08/24 07:37:23;;;;;;;;;;;22.80;72.20;;;;;;6127704;23;816;-68
2022/08/24 07:39:49;;;;;;;;;;;22.80;72.10;;;;;;6128171;23;900;-67
2022/08/24 07:42:14;;;;;;;;;;;22.70;72.20;;;;;;6127838;23;1023;-68
2022/08/24 07:44:39;;;;;;;;;;;22.80;72.20;;;;;;6127964;23;975;-67
2022/08/24 07:47:05;;;;;;;;;;;22.70;72.20;;;;;;6127324;23;1894;-67
2022/08/24 07:49:31;;;;;;;;;;;22.80;72.30;;;;;;6101955;23;916;-68
2022/08/24 07:51:56;;;;;;;;;;;22.80;72.30;;;;;;6127944;23;815;-67
2022/08/24 07:54:22;;;;;;;;;;;22.80;72.30;;;;;;6102040;23;765;-67
2022/08/24 07:56:49;;;;;;;;;;;22.70;72.20;;;;;;6101482;23;1259;-67
2022/08/24 07:59:15;;;;;;;;;;;22.70;72.30;;;;;;6127798;23;964;-67
2022/08/24 08:01:40;;;;;;;;;;;22.80;72.40;;;;;;6127779;23;800;-67
2022/08/24 08:04:06;;;;;;;;;;;22.80;72.30;;;;;;6101665;23;1395;-68
2022/08/24 08:06:32;;;;;;;;;;;22.70;72.30;;;;;;6127767;23;1939;-67
2022/08/24 08:08:57;;;;;;;;;;;22.80;72.30;;;;;;6128111;23;785;-68
2022/08/24 08:11:23;;;;;;;;;;;22.80;72.30;;;;;;6127650;23;843;-67
2022/08/24 08:13:48;;;;;;;;;;;22.80;72.30;;;;;;6127697;23;813;-67
2022/08/24 08:16:14;;;;;;;;;;;22.70;72.20;;;;;;6127172;23;1239;-68
2022/08/24 08:18:39;;;;;;;;;;;22.80;72.20;;;;;;6101750;23;784;-68
2022/08/24 08:24:13;;;;;;;;;;;22.80;72.30;;;;;;6127489;23;798;-66
2022/08/24 08:26:34;;;;;;;;;;;22.70;72.20;;;;;;6126933;23;1940;-68
2022/08/24 08:29:01;;;;;;;;;;;22.80;72.30;;;;;;6101730;23;876;-68
2022/08/24 08:31:27;;;;;;;;;;;22.70;72.20;;;;;;6127311;23;805;-68
2022/08/24 08:33:52;;;;;;;;;;;22.80;72.20;;;;;;6101897;23;1150;-68
2022/08/24 08:36:20;;;;;;;;;;;22.80;72.30;;;;;;6127151;23;1200;-68
2022/08/24 08:38:45;;;;;;;;;;;22.80;72.40;;;;;;6127533;23;770;-68
2022/08/24 08:41:11;;;;;;;;;;;22.80;72.40;;;;;;6101765;23;1034;-68
2022/08/24 08:44:09;;;;;;;;;;;22.80;72.30;;;;;;6127630;23;794;-68
2022/08/24 08:46:46;;;;;;;;;;;22.80;72.40;;;;;;6062417;23;1889;-68
2022/08/24 08:49:19;;;;;;;;;;;22.80;72.40;;;;;;6101670;23;1313;-68
2022/08/24 08:51:50;;;;;;;;;;;22.80;73.20;;;;;;6101536;23;817;-68
2022/08/24 08:54:22;;;;;;;;;;;22.80;73.20;;;;;;6101443;23;861;-68
2022/08/24 08:56:54;;;;;;;;;;;22.80;72.30;;;;;;6101094;23;1248;-68
2022/08/24 08:59:38;;;;;;;;;;;22.80;72.30;;;;;;6127845;23;789;-68
2022/08/24 09:02:32;;;;;;;;;;;22.80;72.20;;;;;;6127319;23;1034;-68
2022/08/24 09:05:08;;;;;;;;;;;22.80;72.20;;;;;;6101385;23;1302;-68
2022/08/24 09:07:36;;;;;;;;;;;22.80;72.20;;;;;;6101275;23;1885;-69
2022/08/24 09:10:02;;;;;;;;;;;22.90;72.40;;;;;;6101244;23;1121;-68
2022/08/24 09:12:39;;;;;;;;;;;22.90;72.40;;;;;;6127148;23;903;-68
2022/08/24 09:15:23;;;;;;;;;;;22.90;72.20;;;;;;6126518;23;1192;-69
2022/08/24 09:17:49;;;;;;;;;;;22.90;72.10;;;;;;6126937;23;900;-68
2022/08/24 09:20:22;;;;;;;;;;;22.90;72.20;;;;;;6127187;23;813;-68
2022/08/24 09:22:48;;;;;;;;;;;22.90;72.10;;;;;;6101267;23;1039;-67
2022/08/24 09:25:25;;;;;;;;;;;22.90;72.10;;;;;;6101157;23;1204;-68
2022/08/24 09:28:03;;;;;;;;;;;22.90;72.20;;;;;;6101376;23;1889;-69
2022/08/24 09:30:41;;;;;;;;;;;22.90;72.20;;;;;;6126931;23;964;-67
2022/08/24 09:33:08;;;;;;;;;;;22.90;72.20;;;;;;6101175;23;1266;-67
2022/08/24 09:35:34;;;;;;;;;;;22.90;72.20;;;;;;6126370;23;1172;-67
2022/08/24 09:38:04;;;;;;;;;;;22.90;72.20;;;;;;6126861;23;869;-67
2022/08/24 09:40:32;;;;;;;;;;;22.90;72.20;;;;;;6077110;23;1320;-67
2022/08/24 09:43:27;;;;;;;;;;;22.90;72.10;;;;;;6126872;23;987;-67
2022/08/24 09:46:12;;;;;;;;;;;22.90;72.20;;;;;;6101245;23;1247;-67
2022/08/24 09:48:43;;;;;;;;;;;22.90;72.10;;;;;;6100649;23;1885;-67
2022/08/24 09:51:29;;;;;;;;;;;22.90;72.50;;;;;;6126869;23;963;-67
2022/08/24 09:54:01;;;;;;;;;;;22.90;72.50;;;;;;6077085;23;1138;-67
2022/08/24 09:56:32;;;;;;;;;;;22.90;72.50;;;;;;6125906;23;1248;-67
2022/08/24 09:58:57;;;;;;;;;;;22.90;72.40;;;;;;6100835;23;876;-68
2022/08/24 10:01:34;;;;;;;;;;;23.00;72.20;;;;;;6126487;23;821;-68
2022/08/24 10:04:07;;;;;;;;;;;22.90;72.20;;;;;;6100733;23;738;-67
2022/08/24 10:06:35;;;;;;;;;;;22.90;72.00;;;;;;6075888;23;1931;-67
2022/08/24 10:09:04;;;;;;;;;;;22.90;71.90;;;;;;6099188;23;1213;-67
2022/08/24 10:11:48;;;;;;;;;;;23.00;71.90;;;;;;6099656;23;1192;-68
2022/08/24 10:14:30;;;;;;;;;;;22.90;71.90;;;;;;6125453;23;784;-68
2022/08/24 10:16:58;;;;;;;;;;;22.90;72.10;;;;;;6099625;23;3529;-64
2022/08/24 10:19:44;;;;;;;;;;;22.90;72.10;;;;;;6126516;23;843;-64
2022/08/24 10:22:14;;;;;;;;;;;22.90;72.20;;;;;;6100691;23;911;-63
2022/08/24 10:24:46;;;;;;;;;;;22.90;72.10;;;;;;6100566;23;1061;-65
2022/08/24 10:27:17;;;;;;;;;;;23.00;72.50;;;;;;6126154;23;1897;-64
2022/08/24 10:29:56;;;;;;;;;;;22.90;72.30;;;;;;6101040;23;891;-63
2022/08/24 10:32:37;;;;;;;;;;;23.00;72.60;;;;;;6100681;23;825;-64
2022/08/24 10:35:04;;;;;;;;;;;22.90;72.60;;;;;;6100647;23;804;-63
2022/08/24 10:37:29;;;;;;;;;;;23.00;72.40;;;;;;6125992;23;1279;-64
2022/08/24 10:40:15;;;;;;;;;;;23.00;72.70;;;;;;6126247;23;887;-64
2022/08/24 10:46:02;;;;;;;;;;;22.90;72.70;;;;;;6126055;23;1314;-64
2022/08/24 10:48:30;;;;;;;;;;;23.00;73.00;;;;;;6126521;23;1929;-64
2022/08/24 10:50:56;;;;;;;;;;;23.00;72.70;;;;;;6126019;23;801;-65
2022/08/24 10:53:22;;;;;;;;;;;23.00;72.80;;;;;;6100359;23;1172;-64
2022/08/24 10:56:08;;;;;;;;;;;23.00;72.50;;;;;;6125839;23;1201;-65
2022/08/24 10:58:36;;;;;;;;;;;23.00;72.90;;;;;;6125308;23;1551;-65
2022/08/24 11:01:18;;;;;;;;;;;23.00;73.00;;;;;;6126134;23;865;-64
2022/08/24 11:03:47;;;;;;;;;;;23.00;72.90;;;;;;6126689;23;805;-64
2022/08/24 11:06:13;;;;;;;;;;;23.00;72.80;;;;;;6125948;23;1215;-64
2022/08/24 11:08:39;;;;;;;;;;;23.00;72.40;;;;;;6125812;23;1885;-64
2022/08/24 11:11:11;;;;;;;;;;;23.00;72.30;;;;;;6100058;23;1196;-64
2022/08/24 11:13:48;;;;;;;;;;;23.00;72.40;;;;;;6126441;23;951;-65
2022/08/24 11:16:13;;;;;;;;;;;23.00;72.40;;;;;;6075492;23;1294;-64
2022/08/24 11:18:49;;;;;;;;;;;23.00;72.70;;;;;;6100200;23;1464;-64
2022/08/24 11:21:50;;;;;;;;;;;23.00;72.80;;;;;;6126323;23;868;-64
2022/08/24 11:24:22;;;;;;;;;;;23.10;73.90;;;;;;6008099;23;1343;-64
2022/08/24 11:26:53;;;;;;;;;;;23.10;73.10;;;;;;6106482;23;1897;-65
2022/08/24 11:29:18;;;;;;;;;;;23.10;73.00;;;;;;6100324;23;844;-64
2022/08/24 11:31:46;;;;;;;;;;;23.10;72.80;;;;;;6100120;23;833;-65
2022/08/24 11:34:13;;;;;;;;;;;23.10;72.90;;;;;;6100460;23;804;-65
2022/08/24 11:36:38;;;;;;;;;;;23.10;72.90;;;;;;6125292;23;1200;-64
2022/08/24 11:39:15;;;;;;;;;;;23.10;72.70;;;;;;6100333;23;959;-65
2022/08/24 11:41:46;;;;;;;;;;;23.10;72.70;;;;;;6125904;23;833;-65
2022/08/24 11:44:16;;;;;;;;;;;23.20;72.60;;;;;;6100278;23;1054;-64
2022/08/24 11:46:45;;;;;;;;;;;23.10;72.50;;;;;;6099660;23;1877;-65
2022/08/24 11:49:13;;;;;;;;;;;23.10;72.40;;;;;;6100641;23;1253;-64
2022/08/24 11:51:38;;;;;;;;;;;23.10;72.40;;;;;;6099961;23;939;-64
2022/08/24 11:54:08;;;;;;;;;;;23.20;72.70;;;;;;6124410;23;975;-64
2022/08/24 11:56:57;;;;;;;;;;;23.10;72.90;;;;;;6125613;23;1172;-65
2022/08/24 11:59:23;;;;;;;;;;;23.20;73.10;;;;;;6109595;23;1128;-65
2022/08/24 12:01:52;;;;;;;;;;;23.20;73.10;;;;;;6125537;23;847;-66
2022/08/24 12:04:37;;;;;;;;;;;23.20;72.80;;;;;;6100004;23;801;-65
2022/08/24 12:07:02;;;;;;;;;;;23.20;72.70;;;;;;6125103;23;1885;-66
2022/08/24 12:09:35;;;;;;;;;;;23.20;72.50;;;;;;6126036;23;831;-66
2022/08/24 12:12:03;;;;;;;;;;;23.10;72.40;;;;;;6099578;23;834;-65
2022/08/24 12:14:29;;;;;;;;;;;23.20;72.50;;;;;;6125836;23;808;-66
2022/08/24 12:17:01;;;;;;;;;;;23.20;72.50;;;;;;6125013;23;1249;-65
2022/08/24 12:19:31;;;;;;;;;;;23.20;72.60;;;;;;6100000;23;809;-65
2022/08/24 12:22:02;;;;;;;;;;;23.20;72.30;;;;;;6101620;23;923;-64
2022/08/24 12:24:29;;;;;;;;;;;23.20;72.30;;;;;;6077825;23;971;-65
2022/08/24 12:26:59;;;;;;;;;;;23.20;72.00;;;;;;6126759;23;1897;-65
2022/08/24 12:29:24;;;;;;;;;;;23.20;72.20;;;;;;6102508;23;832;-65
2022/08/24 12:31:56;;;;;;;;;;;23.20;72.00;;;;;;6127450;23;781;-65
2022/08/24 12:34:23;;;;;;;;;;;23.10;72.10;;;;;;6127899;23;823;-65
2022/08/24 12:37:08;;;;;;;;;;;23.20;72.00;;;;;;6127105;23;1271;-65
2022/08/24 12:39:35;;;;;;;;;;;23.20;71.80;;;;;;6101609;23;1193;-65
2022/08/24 12:42:19;;;;;;;;;;;23.20;71.60;;;;;;6101496;23;998;-65
2022/08/24 12:44:46;;;;;;;;;;;23.20;71.40;;;;;;6127535;23;1026;-65
2022/08/24 12:47:17;;;;;;;;;;;23.20;71.30;;;;;;6101087;23;1989;-65
2022/08/24 12:49:44;;;;;;;;;;;23.10;71.20;;;;;;6101425;23;1042;-65
2022/08/24 12:52:28;;;;;;;;;;;23.20;71.30;;;;;;6101334;23;1273;-64
2022/08/24 12:55:09;;;;;;;;;;;23.20;71.40;;;;;;6127458;23;1035;-64
2022/08/24 12:57:34;;;;;;;;;;;23.20;71.50;;;;;;6077084;23;1293;-64
2022/08/24 13:00:14;;;;;;;;;;;23.20;71.40;;;;;;6127496;23;941;-64
2022/08/24 13:02:41;;;;;;;;;;;23.10;71.50;;;;;;6101360;23;907;-65
2022/08/24 13:05:12;;;;;;;;;;;23.10;71.50;;;;;;6078114;23;1175;-64
2022/08/24 13:07:39;;;;;;;;;;;23.10;71.40;;;;;;6127315;23;1889;-67
2022/08/24 13:10:13;;;;;;;;;;;23.10;71.40;;;;;;6127424;23;878;-66
2022/08/24 13:12:44;;;;;;;;;;;23.10;71.50;;;;;;6076979;23;1358;-65
2022/08/24 13:15:22;;;;;;;;;;;23.20;71.50;;;;;;6127787;23;856;-67
2022/08/24 13:17:48;;;;;;;;;;;23.20;71.20;;;;;;6126760;23;1173;-65
2022/08/24 13:20:23;;;;;;;;;;;23.20;71.20;;;;;;6127353;23;840;-66
2022/08/24 13:23:07;;;;;;;;;;;23.20;71.10;;;;;;6101084;23;1439;-66
2022/08/24 13:25:42;;;;;;;;;;;23.20;70.80;;;;;;6126522;23;1195;-66
2022/08/24 13:28:08;;;;;;;;;;;23.20;70.80;;;;;;6126964;23;1909;-66
2022/08/24 13:30:36;;;;;;;;;;;23.30;70.80;;;;;;6127117;23;1038;-66
2022/08/24 13:33:07;;;;;;;;;;;23.30;70.90;;;;;;6126382;23;1073;-66
2022/08/24 13:35:35;;;;;;;;;;;23.30;70.80;;;;;;6126442;23;1191;-67
2022/08/24 13:38:20;;;;;;;;;;;23.30;70.70;;;;;;6126966;23;800;-66
2022/08/24 13:40:46;;;;;;;;;;;23.30;70.70;;;;;;6101037;23;853;-66
2022/08/24 13:43:18;;;;;;;;;;;23.30;70.70;;;;;;6100905;23;1003;-66
2022/08/24 13:45:56;;;;;;;;;;;23.30;70.70;;;;;;6100619;23;1203;-66
2022/08/24 13:48:27;;;;;;;;;;;23.30;70.70;;;;;;6101229;23;1897;-65
2022/08/24 13:50:58;;;;;;;;;;;23.30;70.70;;;;;;6100908;23;809;-65
2022/08/24 13:53:32;;;;;;;;;;;23.30;70.60;;;;;;6126757;23;913;-66
2022/08/24 13:56:16;;;;;;;;;;;23.30;70.60;;;;;;6126215;23;1181;-66
2022/08/24 13:58:45;;;;;;;;;;;23.30;70.60;;;;;;6126814;23;1027;-65
2022/08/24 14:01:19;;;;;;;;;;;23.30;70.50;;;;;;6126731;23;791;-66
2022/08/24 14:03:58;;;;;;;;;;;23.30;70.50;;;;;;6126803;23;1033;-65
2022/08/24 14:06:33;;;;;;;;;;;23.30;70.40;;;;;;6126203;23;1263;-66
2022/08/24 14:09:01;;;;;;;;;;;23.30;70.50;;;;;;6126738;23;1932;-66
2022/08/24 14:11:55;;;;;;;;;;;23.30;70.40;;;;;;6126643;23;1014;-65
2022/08/24 14:14:33;;;;;;;;;;;23.30;70.10;;;;;;6022679;23;1289;-65
2022/08/24 14:20:10;;;;;;;;;;;23.30;70.20;;;;;;6104643;23;599;-65
2022/08/24 14:22:37;;;;;;;;;;;23.30;70.20;;;;;;6100685;23;813;-64
2022/08/24 14:25:04;;;;;;;;;;;23.30;70.10;;;;;;6100597;23;865;-66
2022/08/24 14:27:39;;;;;;;;;;;23.30;70.20;;;;;;6125844;23;1935;-65
2022/08/24 14:30:17;;;;;;;;;;;23.30;70.10;;;;;;6100666;23;876;-65
2022/08/24 14:32:45;;;;;;;;;;;23.30;70.00;;;;;;6126399;23;943;-66
2022/08/24 14:35:18;;;;;;;;;;;23.30;70.00;;;;;;6100580;23;889;-65
2022/08/24 14:38:07;;;;;;;;;;;23.30;70.00;;;;;;6100147;23;1163;-66
2022/08/24 14:40:33;;;;;;;;;;;23.30;69.90;;;;;;6110533;23;1188;-66
2022/08/24 14:42:59;;;;;;;;;;;23.30;69.90;;;;;;6126443;23;848;-65
2022/08/24 14:45:38;;;;;;;;;;;23.30;69.80;;;;;;6126750;23;828;-65
2022/08/24 14:48:09;;;;;;;;;;;23.30;69.80;;;;;;6126560;23;1937;-65
2022/08/24 14:50:53;;;;;;;;;;;23.30;69.80;;;;;;6127349;23;816;-65
2022/08/24 14:53:19;;;;;;;;;;;23.30;69.60;;;;;;6127078;23;893;-67
2022/08/24 14:55:53;;;;;;;;;;;23.30;69.50;;;;;;6125813;23;1281;-67
2022/08/24 14:58:25;;;;;;;;;;;23.30;69.60;;;;;;6100415;23;852;-65
2022/08/24 15:01:09;;;;;;;;;;;23.30;69.60;;;;;;6100422;23;1639;-66